sensor_id;sensor_type;location;lat;lon;timestamp;P1;durP1;ratioP1;P2;durP2;ratioP2
15228;SDS011;7717;47.792;12.076;2023-02-23T00:01:35;5.80;;;4.07;;
15228;SDS011;7717;47.792;12.076;2023-02-23T00:04:01;3.93;;;3.63;;
15228;SDS011;7717;47.792;12.076;2023-02-23T00:06:28;4.97;;;3.70;;
15228;SDS011;7717;47.792;12.076;2023-02-23T00:08:55;4.30;;;3.90;;
15228;SDS011;7717;47.792;12.076;2023-02-23T00:11:22;4.97;;;3.77;;
15228;SDS011;7717;47.792;12.076;2023-02-23T00:13:48;4.63;;;3.53;;
15228;SDS011;7717;47.792;12.076;2023-02-23T00:16:16;5.10;;;3.83;;
15228;SDS011;7717;47.792;12.076;2023-02-23T00:18:43;7.37;;;3.70;;
15228;SDS011;7717;47.792;12.076;2023-02-23T00:21:23;3.70;;;3.40;;
15228;SDS011;7717;47.792;12.076;2023-02-23T00:23:51;6.03;;;4.03;;
15228;SDS011;7717;47.792;12.076;2023-02-23T00:26:19;5.53;;;4.07;;
15228;SDS011;7717;47.792;12.076;2023-02-23T00:28:46;5.33;;;4.03;;
15228;SDS011;7717;47.792;12.076;2023-02-23T00:31:13;4.97;;;4.00;;
15228;SDS011;7717;47.792;12.076;2023-02-23T00:33:39;4.97;;;3.97;;
15228;SDS011;7717;47.792;12.076;2023-02-23T00:36:06;4.53;;;3.80;;
15228;SDS011;7717;47.792;12.076;2023-02-23T00:38:34;6.00;;;3.93;;
15228;SDS011;7717;47.792;12.076;2023-02-23T00:41:07;5.90;;;3.80;;
15228;SDS011;7717;47.792;12.076;2023-02-23T00:43:35;4.70;;;3.90;;
15228;SDS011;7717;47.792;12.076;2023-02-23T00:46:02;5.53;;;3.97;;
15228;SDS011;7717;47.792;12.076;2023-02-23T00:48:32;5.53;;;3.50;;
15228;SDS011;7717;47.792;12.076;2023-02-23T00:50:59;9.43;;;4.00;;
15228;SDS011;7717;47.792;12.076;2023-02-23T00:53:26;5.60;;;3.77;;
15228;SDS011;7717;47.792;12.076;2023-02-23T00:55:52;4.87;;;3.73;;
15228;SDS011;7717;47.792;12.076;2023-02-23T00:58:18;4.57;;;4.17;;
15228;SDS011;7717;47.792;12.076;2023-02-23T01:00:44;4.83;;;3.40;;
15228;SDS011;7717;47.792;12.076;2023-02-23T01:03:09;5.30;;;3.93;;
15228;SDS011;7717;47.792;12.076;2023-02-23T01:05:35;7.10;;;3.90;;
15228;SDS011;7717;47.792;12.076;2023-02-23T01:08:00;5.90;;;3.87;;
15228;SDS011;7717;47.792;12.076;2023-02-23T01:10:26;4.20;;;3.50;;
15228;SDS011;7717;47.792;12.076;2023-02-23T01:12:51;5.30;;;3.50;;
15228;SDS011;7717;47.792;12.076;2023-02-23T01:15:18;4.70;;;4.00;;
15228;SDS011;7717;47.792;12.076;2023-02-23T01:17:44;4.73;;;3.67;;
15228;SDS011;7717;47.792;12.076;2023-02-23T01:20:11;5.13;;;3.90;;
15228;SDS011;7717;47.792;12.076;2023-02-23T01:22:47;5.17;;;4.30;;
15228;SDS011;7717;47.792;12.076;2023-02-23T01:25:15;4.70;;;3.70;;
15228;SDS011;7717;47.792;12.076;2023-02-23T01:27:41;5.50;;;3.60;;
15228;SDS011;7717;47.792;12.076;2023-02-23T01:30:08;4.90;;;3.77;;
15228;SDS011;7717;47.792;12.076;2023-02-23T01:32:35;5.80;;;4.20;;
15228;SDS011;7717;47.792;12.076;2023-02-23T01:35:02;7.13;;;4.50;;
15228;SDS011;7717;47.792;12.076;2023-02-23T01:37:29;4.50;;;3.77;;
15228;SDS011;7717;47.792;12.076;2023-02-23T01:39:55;6.97;;;3.83;;
15228;SDS011;7717;47.792;12.076;2023-02-23T01:42:21;4.47;;;3.50;;
15228;SDS011;7717;47.792;12.076;2023-02-23T01:47:12;5.73;;;3.90;;
15228;SDS011;7717;47.792;12.076;2023-02-23T01:49:38;5.67;;;4.47;;
15228;SDS011;7717;47.792;12.076;2023-02-23T01:52:08;5.10;;;4.20;;
15228;SDS011;7717;47.792;12.076;2023-02-23T01:54:42;7.07;;;4.13;;
15228;SDS011;7717;47.792;12.076;2023-02-23T01:57:14;6.33;;;3.77;;
15228;SDS011;7717;47.792;12.076;2023-02-23T01:59:43;6.13;;;4.50;;
15228;SDS011;7717;47.792;12.076;2023-02-23T02:02:13;7.67;;;4.10;;
15228;SDS011;7717;47.792;12.076;2023-02-23T02:04:45;4.07;;;3.67;;
15228;SDS011;7717;47.792;12.076;2023-02-23T02:07:17;5.03;;;4.27;;
15228;SDS011;7717;47.792;12.076;2023-02-23T02:09:47;4.93;;;4.20;;
15228;SDS011;7717;47.792;12.076;2023-02-23T02:12:33;4.30;;;3.90;;
15228;SDS011;7717;47.792;12.076;2023-02-23T02:14:59;6.63;;;3.80;;
15228;SDS011;7717;47.792;12.076;2023-02-23T02:23:42;9.03;;;4.07;;
15228;SDS011;7717;47.792;12.076;2023-02-23T02:29:37;5.40;;;4.03;;
15228;SDS011;7717;47.792;12.076;2023-02-23T02:35:22;5.23;;;4.10;;
15228;SDS011;7717;47.792;12.076;2023-02-23T02:41:32;5.00;;;3.80;;
15228;SDS011;7717;47.792;12.076;2023-02-23T02:46:50;3.57;;;3.17;;
15228;SDS011;7717;47.792;12.076;2023-02-23T02:49:28;5.03;;;4.10;;
15228;SDS011;7717;47.792;12.076;2023-02-23T02:52:16;3.77;;;3.33;;
15228;SDS011;7717;47.792;12.076;2023-02-23T02:54:48;4.47;;;3.63;;
15228;SDS011;7717;47.792;12.076;2023-02-23T02:57:18;4.27;;;3.87;;
15228;SDS011;7717;47.792;12.076;2023-02-23T02:59:47;4.37;;;3.43;;
15228;SDS011;7717;47.792;12.076;2023-02-23T03:02:37;5.57;;;3.50;;
15228;SDS011;7717;47.792;12.076;2023-02-23T03:05:27;5.40;;;3.23;;
15228;SDS011;7717;47.792;12.076;2023-02-23T03:11:05;7.23;;;3.47;;
15228;SDS011;7717;47.792;12.076;2023-02-23T03:14:10;5.13;;;3.23;;
15228;SDS011;7717;47.792;12.076;2023-02-23T03:20:12;3.83;;;3.13;;
15228;SDS011;7717;47.792;12.076;2023-02-23T03:23:05;3.93;;;3.43;;
15228;SDS011;7717;47.792;12.076;2023-02-23T03:26:01;5.53;;;2.80;;
15228;SDS011;7717;47.792;12.076;2023-02-23T03:28:58;5.80;;;3.00;;
15228;SDS011;7717;47.792;12.076;2023-02-23T03:34:36;6.40;;;3.40;;
15228;SDS011;7717;47.792;12.076;2023-02-23T03:37:28;3.73;;;2.77;;
15228;SDS011;7717;47.792;12.076;2023-02-23T03:40:21;6.37;;;3.73;;
15228;SDS011;7717;47.792;12.076;2023-02-23T03:43:12;5.67;;;3.43;;
15228;SDS011;7717;47.792;12.076;2023-02-23T03:46:03;5.53;;;3.30;;
15228;SDS011;7717;47.792;12.076;2023-02-23T03:48:52;3.60;;;3.27;;
15228;SDS011;7717;47.792;12.076;2023-02-23T03:51:40;5.33;;;3.63;;
15228;SDS011;7717;47.792;12.076;2023-02-23T03:54:33;4.87;;;3.57;;
15228;SDS011;7717;47.792;12.076;2023-02-23T03:57:21;4.17;;;2.80;;
15228;SDS011;7717;47.792;12.076;2023-02-23T04:00:11;4.93;;;3.30;;
15228;SDS011;7717;47.792;12.076;2023-02-23T04:03:00;5.33;;;3.33;;
15228;SDS011;7717;47.792;12.076;2023-02-23T04:05:46;4.60;;;3.27;;
15228;SDS011;7717;47.792;12.076;2023-02-23T04:08:34;5.00;;;3.53;;
15228;SDS011;7717;47.792;12.076;2023-02-23T04:11:23;6.27;;;3.83;;
15228;SDS011;7717;47.792;12.076;2023-02-23T04:14:17;9.03;;;3.40;;
15228;SDS011;7717;47.792;12.076;2023-02-23T04:16:48;5.20;;;3.53;;
15228;SDS011;7717;47.792;12.076;2023-02-23T04:19:14;4.30;;;3.90;;
15228;SDS011;7717;47.792;12.076;2023-02-23T04:21:39;4.77;;;4.00;;
15228;SDS011;7717;47.792;12.076;2023-02-23T04:24:05;5.30;;;4.10;;
15228;SDS011;7717;47.792;12.076;2023-02-23T04:26:30;5.93;;;4.33;;
15228;SDS011;7717;47.792;12.076;2023-02-23T04:28:56;5.20;;;4.20;;
15228;SDS011;7717;47.792;12.076;2023-02-23T04:31:21;5.40;;;4.07;;
15228;SDS011;7717;47.792;12.076;2023-02-23T04:33:48;6.93;;;4.50;;
15228;SDS011;7717;47.792;12.076;2023-02-23T04:36:14;5.13;;;4.63;;
15228;SDS011;7717;47.792;12.076;2023-02-23T04:38:40;9.67;;;6.80;;
15228;SDS011;7717;47.792;12.076;2023-02-23T04:41:05;9.77;;;5.93;;
15228;SDS011;7717;47.792;12.076;2023-02-23T04:43:31;11.53;;;5.47;;
15228;SDS011;7717;47.792;12.076;2023-02-23T04:45:56;6.80;;;5.27;;
15228;SDS011;7717;47.792;12.076;2023-02-23T04:48:21;6.43;;;4.70;;
15228;SDS011;7717;47.792;12.076;2023-02-23T04:50:50;4.77;;;4.13;;
15228;SDS011;7717;47.792;12.076;2023-02-23T04:53:17;5.07;;;4.50;;
15228;SDS011;7717;47.792;12.076;2023-02-23T04:55:42;4.30;;;3.20;;
15228;SDS011;7717;47.792;12.076;2023-02-23T04:58:07;5.60;;;3.90;;
15228;SDS011;7717;47.792;12.076;2023-02-23T05:00:37;5.00;;;3.60;;
15228;SDS011;7717;47.792;12.076;2023-02-23T05:03:04;5.63;;;3.73;;
15228;SDS011;7717;47.792;12.076;2023-02-23T05:05:29;4.53;;;3.30;;
15228;SDS011;7717;47.792;12.076;2023-02-23T05:07:55;4.17;;;3.33;;
15228;SDS011;7717;47.792;12.076;2023-02-23T05:10:21;5.43;;;4.07;;
15228;SDS011;7717;47.792;12.076;2023-02-23T05:12:46;6.17;;;3.93;;
15228;SDS011;7717;47.792;12.076;2023-02-23T05:15:11;4.57;;;3.70;;
15228;SDS011;7717;47.792;12.076;2023-02-23T05:17:37;5.73;;;3.30;;
15228;SDS011;7717;47.792;12.076;2023-02-23T05:20:05;9.07;;;5.20;;
15228;SDS011;7717;47.792;12.076;2023-02-23T05:22:31;9.80;;;4.93;;
15228;SDS011;7717;47.792;12.076;2023-02-23T05:24:56;5.60;;;3.90;;
15228;SDS011;7717;47.792;12.076;2023-02-23T05:27:21;3.77;;;3.27;;
15228;SDS011;7717;47.792;12.076;2023-02-23T05:29:47;3.83;;;3.47;;
15228;SDS011;7717;47.792;12.076;2023-02-23T05:32:12;6.77;;;4.27;;
15228;SDS011;7717;47.792;12.076;2023-02-23T05:34:37;8.27;;;4.50;;
15228;SDS011;7717;47.792;12.076;2023-02-23T05:37:03;5.37;;;4.27;;
15228;SDS011;7717;47.792;12.076;2023-02-23T05:39:29;5.07;;;4.07;;
15228;SDS011;7717;47.792;12.076;2023-02-23T05:41:55;37.20;;;26.27;;
15228;SDS011;7717;47.792;12.076;2023-02-23T05:44:20;485.93;;;200.60;;
15228;SDS011;7717;47.792;12.076;2023-02-23T05:46:46;332.50;;;133.37;;
15228;SDS011;7717;47.792;12.076;2023-02-23T05:49:11;151.80;;;63.13;;
15228;SDS011;7717;47.792;12.076;2023-02-23T05:51:37;67.10;;;30.50;;
15228;SDS011;7717;47.792;12.076;2023-02-23T05:54:03;21.83;;;12.10;;
15228;SDS011;7717;47.792;12.076;2023-02-23T05:56:29;22.30;;;12.43;;
15228;SDS011;7717;47.792;12.076;2023-02-23T05:58:55;27.63;;;15.83;;
15228;SDS011;7717;47.792;12.076;2023-02-23T06:01:22;24.67;;;12.63;;
15228;SDS011;7717;47.792;12.076;2023-02-23T06:03:48;30.00;;;18.17;;
15228;SDS011;7717;47.792;12.076;2023-02-23T06:06:14;27.20;;;17.03;;
15228;SDS011;7717;47.792;12.076;2023-02-23T06:08:39;10.90;;;8.37;;
15228;SDS011;7717;47.792;12.076;2023-02-23T06:11:06;15.93;;;10.77;;
15228;SDS011;7717;47.792;12.076;2023-02-23T06:13:31;39.47;;;21.90;;
15228;SDS011;7717;47.792;12.076;2023-02-23T06:15:57;47.67;;;23.37;;
15228;SDS011;7717;47.792;12.076;2023-02-23T06:18:24;46.20;;;22.03;;
15228;SDS011;7717;47.792;12.076;2023-02-23T06:20:50;47.47;;;24.50;;
15228;SDS011;7717;47.792;12.076;2023-02-23T06:23:15;29.63;;;16.87;;
15228;SDS011;7717;47.792;12.076;2023-02-23T06:25:42;23.60;;;11.97;;
15228;SDS011;7717;47.792;12.076;2023-02-23T06:28:08;93.93;;;49.13;;
15228;SDS011;7717;47.792;12.076;2023-02-23T06:30:35;60.23;;;34.90;;
15228;SDS011;7717;47.792;12.076;2023-02-23T06:33:01;51.20;;;29.47;;
15228;SDS011;7717;47.792;12.076;2023-02-23T06:35:27;101.33;;;59.90;;
15228;SDS011;7717;47.792;12.076;2023-02-23T06:37:53;29.10;;;18.60;;
15228;SDS011;7717;47.792;12.076;2023-02-23T06:40:18;8.77;;;7.43;;
15228;SDS011;7717;47.792;12.076;2023-02-23T06:42:45;6.20;;;5.10;;
15228;SDS011;7717;47.792;12.076;2023-02-23T06:45:10;7.03;;;5.43;;
15228;SDS011;7717;47.792;12.076;2023-02-23T06:47:37;5.30;;;4.43;;
15228;SDS011;7717;47.792;12.076;2023-02-23T06:50:03;5.70;;;4.83;;
15228;SDS011;7717;47.792;12.076;2023-02-23T06:52:29;8.83;;;6.90;;
15228;SDS011;7717;47.792;12.076;2023-02-23T06:54:54;8.90;;;6.87;;
15228;SDS011;7717;47.792;12.076;2023-02-23T06:57:19;8.83;;;5.47;;
15228;SDS011;7717;47.792;12.076;2023-02-23T06:59:45;6.20;;;5.03;;
15228;SDS011;7717;47.792;12.076;2023-02-23T07:02:11;13.20;;;9.87;;
15228;SDS011;7717;47.792;12.076;2023-02-23T07:04:37;5.20;;;4.70;;
15228;SDS011;7717;47.792;12.076;2023-02-23T07:07:03;8.00;;;5.57;;
15228;SDS011;7717;47.792;12.076;2023-02-23T07:09:29;5.10;;;4.70;;
15228;SDS011;7717;47.792;12.076;2023-02-23T07:11:55;8.90;;;6.03;;
15228;SDS011;7717;47.792;12.076;2023-02-23T07:14:20;6.17;;;5.10;;
15228;SDS011;7717;47.792;12.076;2023-02-23T07:16:46;5.23;;;4.47;;
15228;SDS011;7717;47.792;12.076;2023-02-23T07:19:11;7.87;;;6.60;;
15228;SDS011;7717;47.792;12.076;2023-02-23T07:21:37;13.93;;;7.93;;
15228;SDS011;7717;47.792;12.076;2023-02-23T07:24:02;10.00;;;6.83;;
15228;SDS011;7717;47.792;12.076;2023-02-23T07:26:30;7.53;;;5.70;;
15228;SDS011;7717;47.792;12.076;2023-02-23T07:28:56;7.97;;;5.63;;
15228;SDS011;7717;47.792;12.076;2023-02-23T07:31:21;7.57;;;5.50;;
15228;SDS011;7717;47.792;12.076;2023-02-23T07:33:47;7.70;;;4.60;;
15228;SDS011;7717;47.792;12.076;2023-02-23T07:36:12;5.90;;;4.87;;
15228;SDS011;7717;47.792;12.076;2023-02-23T07:38:41;8.10;;;5.30;;
15228;SDS011;7717;47.792;12.076;2023-02-23T07:41:06;33.33;;;14.70;;
15228;SDS011;7717;47.792;12.076;2023-02-23T07:43:31;72.73;;;28.57;;
15228;SDS011;7717;47.792;12.076;2023-02-23T07:46:00;65.33;;;26.57;;
15228;SDS011;7717;47.792;12.076;2023-02-23T07:48:26;14.67;;;9.17;;
15228;SDS011;7717;47.792;12.076;2023-02-23T07:50:51;10.30;;;6.50;;
15228;SDS011;7717;47.792;12.076;2023-02-23T07:53:16;9.03;;;6.80;;
15228;SDS011;7717;47.792;12.076;2023-02-23T07:55:42;7.07;;;4.83;;
15228;SDS011;7717;47.792;12.076;2023-02-23T07:58:07;5.27;;;4.77;;
15228;SDS011;7717;47.792;12.076;2023-02-23T08:00:33;5.10;;;4.37;;
15228;SDS011;7717;47.792;12.076;2023-02-23T08:03:01;9.00;;;5.50;;
15228;SDS011;7717;47.792;12.076;2023-02-23T08:05:26;6.20;;;5.10;;
15228;SDS011;7717;47.792;12.076;2023-02-23T08:07:52;4.73;;;4.00;;
15228;SDS011;7717;47.792;12.076;2023-02-23T08:10:18;5.13;;;4.30;;
15228;SDS011;7717;47.792;12.076;2023-02-23T08:12:44;4.70;;;4.20;;
15228;SDS011;7717;47.792;12.076;2023-02-23T08:15:09;5.10;;;4.43;;
15228;SDS011;7717;47.792;12.076;2023-02-23T08:17:35;4.63;;;3.73;;
15228;SDS011;7717;47.792;12.076;2023-02-23T08:20:02;4.73;;;4.20;;
15228;SDS011;7717;47.792;12.076;2023-02-23T08:22:29;4.73;;;3.50;;
15228;SDS011;7717;47.792;12.076;2023-02-23T08:24:54;5.00;;;3.83;;
15228;SDS011;7717;47.792;12.076;2023-02-23T08:27:20;7.87;;;5.37;;
15228;SDS011;7717;47.792;12.076;2023-02-23T08:29:45;9.90;;;4.87;;
15228;SDS011;7717;47.792;12.076;2023-02-23T08:32:11;4.70;;;4.17;;
15228;SDS011;7717;47.792;12.076;2023-02-23T08:34:37;9.30;;;7.20;;
15228;SDS011;7717;47.792;12.076;2023-02-23T08:37:07;6.77;;;4.73;;
15228;SDS011;7717;47.792;12.076;2023-02-23T08:39:32;8.53;;;5.40;;
15228;SDS011;7717;47.792;12.076;2023-02-23T08:41:58;6.30;;;5.20;;
15228;SDS011;7717;47.792;12.076;2023-02-23T08:44:23;6.33;;;5.20;;
15228;SDS011;7717;47.792;12.076;2023-02-23T08:46:48;9.80;;;7.23;;
15228;SDS011;7717;47.792;12.076;2023-02-23T08:49:14;14.33;;;10.63;;
15228;SDS011;7717;47.792;12.076;2023-02-23T08:51:39;9.10;;;6.70;;
15228;SDS011;7717;47.792;12.076;2023-02-23T08:54:06;7.50;;;6.53;;
15228;SDS011;7717;47.792;12.076;2023-02-23T08:56:37;5.87;;;5.07;;
15228;SDS011;7717;47.792;12.076;2023-02-23T08:59:02;6.80;;;4.50;;
15228;SDS011;7717;47.792;12.076;2023-02-23T09:01:28;8.00;;;4.93;;
15228;SDS011;7717;47.792;12.076;2023-02-23T09:03:53;5.80;;;4.87;;
15228;SDS011;7717;47.792;12.076;2023-02-23T09:06:19;7.00;;;5.77;;
15228;SDS011;7717;47.792;12.076;2023-02-23T09:08:46;5.77;;;4.50;;
15228;SDS011;7717;47.792;12.076;2023-02-23T09:11:12;5.20;;;4.70;;
15228;SDS011;7717;47.792;12.076;2023-02-23T09:13:40;6.20;;;4.37;;
15228;SDS011;7717;47.792;12.076;2023-02-23T09:16:06;6.77;;;4.20;;
15228;SDS011;7717;47.792;12.076;2023-02-23T09:18:31;5.57;;;4.23;;
15228;SDS011;7717;47.792;12.076;2023-02-23T09:20:57;6.27;;;5.10;;
15228;SDS011;7717;47.792;12.076;2023-02-23T09:23:26;7.07;;;5.33;;
15228;SDS011;7717;47.792;12.076;2023-02-23T09:25:52;6.70;;;4.97;;
15228;SDS011;7717;47.792;12.076;2023-02-23T09:28:18;4.80;;;4.30;;
15228;SDS011;7717;47.792;12.076;2023-02-23T09:30:44;5.93;;;4.27;;
15228;SDS011;7717;47.792;12.076;2023-02-23T09:33:10;5.73;;;4.20;;
15228;SDS011;7717;47.792;12.076;2023-02-23T09:35:36;4.50;;;4.10;;
15228;SDS011;7717;47.792;12.076;2023-02-23T09:38:03;4.57;;;4.00;;
15228;SDS011;7717;47.792;12.076;2023-02-23T09:40:34;6.73;;;4.17;;
15228;SDS011;7717;47.792;12.076;2023-02-23T09:43:14;7.17;;;4.73;;
15228;SDS011;7717;47.792;12.076;2023-02-23T09:48:16;5.77;;;4.63;;
15228;SDS011;7717;47.792;12.076;2023-02-23T09:50:46;5.77;;;4.40;;
15228;SDS011;7717;47.792;12.076;2023-02-23T09:53:32;6.07;;;4.70;;
15228;SDS011;7717;47.792;12.076;2023-02-23T09:56:03;6.07;;;4.53;;
15228;SDS011;7717;47.792;12.076;2023-02-23T09:58:32;7.43;;;4.53;;
15228;SDS011;7717;47.792;12.076;2023-02-23T10:03:37;6.77;;;4.73;;
15228;SDS011;7717;47.792;12.076;2023-02-23T10:06:06;5.43;;;4.30;;
15228;SDS011;7717;47.792;12.076;2023-02-23T10:11:12;5.80;;;5.20;;
15228;SDS011;7717;47.792;12.076;2023-02-23T10:19:05;18.07;;;6.57;;
15228;SDS011;7717;47.792;12.076;2023-02-23T10:21:38;7.70;;;5.00;;
15228;SDS011;7717;47.792;12.076;2023-02-23T10:24:10;6.07;;;5.47;;
15228;SDS011;7717;47.792;12.076;2023-02-23T10:27:04;7.90;;;5.57;;
15228;SDS011;7717;47.792;12.076;2023-02-23T10:29:33;6.10;;;4.70;;
15228;SDS011;7717;47.792;12.076;2023-02-23T10:32:26;5.87;;;5.13;;
15228;SDS011;7717;47.792;12.076;2023-02-23T10:34:52;4.93;;;4.37;;
15228;SDS011;7717;47.792;12.076;2023-02-23T10:37:20;7.13;;;4.80;;
15228;SDS011;7717;47.792;12.076;2023-02-23T10:39:47;6.83;;;5.03;;
15228;SDS011;7717;47.792;12.076;2023-02-23T10:42:19;6.87;;;5.27;;
15228;SDS011;7717;47.792;12.076;2023-02-23T10:44:47;7.13;;;5.07;;
15228;SDS011;7717;47.792;12.076;2023-02-23T10:47:18;7.43;;;4.97;;
15228;SDS011;7717;47.792;12.076;2023-02-23T10:49:49;6.77;;;4.80;;
15228;SDS011;7717;47.792;12.076;2023-02-23T10:52:28;6.83;;;5.83;;
15228;SDS011;7717;47.792;12.076;2023-02-23T10:54:53;7.03;;;5.57;;
15228;SDS011;7717;47.792;12.076;2023-02-23T10:57:26;5.90;;;5.27;;
15228;SDS011;7717;47.792;12.076;2023-02-23T11:02:42;8.73;;;5.87;;
15228;SDS011;7717;47.792;12.076;2023-02-23T11:08:17;7.80;;;5.07;;
15228;SDS011;7717;47.792;12.076;2023-02-23T11:13:22;6.73;;;4.60;;
15228;SDS011;7717;47.792;12.076;2023-02-23T11:15:56;7.33;;;5.13;;
15228;SDS011;7717;47.792;12.076;2023-02-23T11:18:24;9.77;;;6.60;;
15228;SDS011;7717;47.792;12.076;2023-02-23T11:20:50;9.30;;;7.90;;
15228;SDS011;7717;47.792;12.076;2023-02-23T11:23:26;6.20;;;4.80;;
15228;SDS011;7717;47.792;12.076;2023-02-23T11:25:59;5.00;;;4.50;;
15228;SDS011;7717;47.792;12.076;2023-02-23T11:28:47;5.97;;;4.67;;
15228;SDS011;7717;47.792;12.076;2023-02-23T11:31:21;5.90;;;4.90;;
15228;SDS011;7717;47.792;12.076;2023-02-23T11:33:52;6.27;;;4.20;;
15228;SDS011;7717;47.792;12.076;2023-02-23T11:38:55;18.60;;;9.47;;
15228;SDS011;7717;47.792;12.076;2023-02-23T11:41:49;7.13;;;5.90;;
15228;SDS011;7717;47.792;12.076;2023-02-23T11:44:28;5.73;;;5.13;;
15228;SDS011;7717;47.792;12.076;2023-02-23T11:46:54;5.67;;;5.00;;
15228;SDS011;7717;47.792;12.076;2023-02-23T11:49:20;5.90;;;4.40;;
15228;SDS011;7717;47.792;12.076;2023-02-23T11:51:53;5.20;;;4.47;;
15228;SDS011;7717;47.792;12.076;2023-02-23T11:54:26;6.70;;;5.83;;
15228;SDS011;7717;47.792;12.076;2023-02-23T11:56:54;6.00;;;4.93;;
15228;SDS011;7717;47.792;12.076;2023-02-23T11:59:26;5.80;;;5.30;;
15228;SDS011;7717;47.792;12.076;2023-02-23T12:01:58;5.97;;;5.07;;
15228;SDS011;7717;47.792;12.076;2023-02-23T12:04:34;7.00;;;5.00;;
15228;SDS011;7717;47.792;12.076;2023-02-23T12:09:46;6.20;;;5.23;;
15228;SDS011;7717;47.792;12.076;2023-02-23T12:12:18;8.57;;;5.27;;
15228;SDS011;7717;47.792;12.076;2023-02-23T12:20:11;7.43;;;5.93;;
15228;SDS011;7717;47.792;12.076;2023-02-23T12:22:46;8.17;;;6.97;;
15228;SDS011;7717;47.792;12.076;2023-02-23T12:25:24;4.93;;;4.50;;
15228;SDS011;7717;47.792;12.076;2023-02-23T12:27:58;6.43;;;4.93;;
15228;SDS011;7717;47.792;12.076;2023-02-23T12:30:38;9.13;;;5.90;;
15228;SDS011;7717;47.792;12.076;2023-02-23T12:35:50;7.43;;;6.17;;
15228;SDS011;7717;47.792;12.076;2023-02-23T12:38:23;7.47;;;6.47;;
15228;SDS011;7717;47.792;12.076;2023-02-23T12:40:52;9.50;;;5.67;;
15228;SDS011;7717;47.792;12.076;2023-02-23T12:43:28;7.43;;;5.43;;
15228;SDS011;7717;47.792;12.076;2023-02-23T12:54:04;8.57;;;5.37;;
15228;SDS011;7717;47.792;12.076;2023-02-23T12:56:31;7.90;;;6.77;;
15228;SDS011;7717;47.792;12.076;2023-02-23T13:09:21;6.37;;;5.70;;
15228;SDS011;7717;47.792;12.076;2023-02-23T13:16:57;6.70;;;5.53;;
15228;SDS011;7717;47.792;12.076;2023-02-23T13:22:10;6.73;;;5.73;;
15228;SDS011;7717;47.792;12.076;2023-02-23T13:24:45;6.93;;;5.77;;
15228;SDS011;7717;47.792;12.076;2023-02-23T13:29:48;7.90;;;6.03;;
15228;SDS011;7717;47.792;12.076;2023-02-23T13:32:19;6.47;;;5.63;;
15228;SDS011;7717;47.792;12.076;2023-02-23T13:34:49;7.17;;;6.47;;
15228;SDS011;7717;47.792;12.076;2023-02-23T13:37:21;8.37;;;6.10;;
15228;SDS011;7717;47.792;12.076;2023-02-23T13:39:53;9.10;;;5.60;;
15228;SDS011;7717;47.792;12.076;2023-02-23T13:45:33;7.03;;;6.17;;
15228;SDS011;7717;47.792;12.076;2023-02-23T13:53:57;7.27;;;6.03;;
15228;SDS011;7717;47.792;12.076;2023-02-23T13:56:25;7.43;;;6.07;;
15228;SDS011;7717;47.792;12.076;2023-02-23T13:59:04;9.23;;;5.47;;
15228;SDS011;7717;47.792;12.076;2023-02-23T14:01:37;8.93;;;5.77;;
15228;SDS011;7717;47.792;12.076;2023-02-23T14:04:12;6.87;;;6.13;;
15228;SDS011;7717;47.792;12.076;2023-02-23T14:07:03;7.93;;;6.03;;
15228;SDS011;7717;47.792;12.076;2023-02-23T14:09:37;8.17;;;6.67;;
15228;SDS011;7717;47.792;12.076;2023-02-23T14:12:22;7.00;;;5.73;;
15228;SDS011;7717;47.792;12.076;2023-02-23T14:14:49;6.70;;;5.30;;
15228;SDS011;7717;47.792;12.076;2023-02-23T14:20:02;7.60;;;5.80;;
15228;SDS011;7717;47.792;12.076;2023-02-23T14:22:37;7.50;;;5.73;;
15228;SDS011;7717;47.792;12.076;2023-02-23T14:25:48;8.67;;;6.00;;
15228;SDS011;7717;47.792;12.076;2023-02-23T14:28:32;10.67;;;7.30;;
15228;SDS011;7717;47.792;12.076;2023-02-23T14:33:47;7.63;;;6.70;;
15228;SDS011;7717;47.792;12.076;2023-02-23T14:44:05;10.80;;;8.93;;
15228;SDS011;7717;47.792;12.076;2023-02-23T14:46:36;9.00;;;7.63;;
15228;SDS011;7717;47.792;12.076;2023-02-23T14:56:48;7.57;;;6.73;;
15228;SDS011;7717;47.792;12.076;2023-02-23T14:59:19;8.87;;;6.57;;
15228;SDS011;7717;47.792;12.076;2023-02-23T15:01:47;9.97;;;8.93;;
15228;SDS011;7717;47.792;12.076;2023-02-23T15:04:18;12.77;;;11.47;;
15228;SDS011;7717;47.792;12.076;2023-02-23T15:06:46;10.57;;;7.57;;
15228;SDS011;7717;47.792;12.076;2023-02-23T15:09:20;17.30;;;9.50;;
15228;SDS011;7717;47.792;12.076;2023-02-23T15:11:54;8.20;;;7.27;;
15228;SDS011;7717;47.792;12.076;2023-02-23T15:14:22;85.47;;;42.30;;
15228;SDS011;7717;47.792;12.076;2023-02-23T15:16:48;78.83;;;40.07;;
15228;SDS011;7717;47.792;12.076;2023-02-23T15:19:18;12.00;;;8.67;;
15228;SDS011;7717;47.792;12.076;2023-02-23T15:21:48;9.27;;;6.80;;
15228;SDS011;7717;47.792;12.076;2023-02-23T15:24:15;7.73;;;6.90;;
15228;SDS011;7717;47.792;12.076;2023-02-23T15:26:41;10.10;;;7.63;;
15228;SDS011;7717;47.792;12.076;2023-02-23T15:29:12;8.70;;;7.57;;
15228;SDS011;7717;47.792;12.076;2023-02-23T15:31:43;16.50;;;11.17;;
15228;SDS011;7717;47.792;12.076;2023-02-23T15:34:17;22.37;;;13.87;;
15228;SDS011;7717;47.792;12.076;2023-02-23T15:36:46;13.73;;;11.03;;
15228;SDS011;7717;47.792;12.076;2023-02-23T15:39:17;13.70;;;9.83;;
15228;SDS011;7717;47.792;12.076;2023-02-23T15:41:59;18.30;;;11.23;;
15228;SDS011;7717;47.792;12.076;2023-02-23T15:44:26;18.03;;;11.97;;
15228;SDS011;7717;47.792;12.076;2023-02-23T15:46:56;13.83;;;8.87;;
15228;SDS011;7717;47.792;12.076;2023-02-23T15:49:25;12.47;;;9.00;;
15228;SDS011;7717;47.792;12.076;2023-02-23T15:52:16;11.53;;;6.83;;
15228;SDS011;7717;47.792;12.076;2023-02-23T15:54:47;8.40;;;6.00;;
15228;SDS011;7717;47.792;12.076;2023-02-23T15:57:28;8.90;;;6.23;;
15228;SDS011;7717;47.792;12.076;2023-02-23T16:00:03;6.87;;;5.40;;
15228;SDS011;7717;47.792;12.076;2023-02-23T16:02:40;9.70;;;6.23;;
15228;SDS011;7717;47.792;12.076;2023-02-23T16:05:18;8.53;;;6.10;;
15228;SDS011;7717;47.792;12.076;2023-02-23T16:07:45;10.03;;;6.20;;
15228;SDS011;7717;47.792;12.076;2023-02-23T16:12:47;8.60;;;5.60;;
15228;SDS011;7717;47.792;12.076;2023-02-23T16:18:01;8.83;;;6.00;;
15228;SDS011;7717;47.792;12.076;2023-02-23T16:20:32;7.03;;;5.27;;
15228;SDS011;7717;47.792;12.076;2023-02-23T16:23:02;8.60;;;5.73;;
15228;SDS011;7717;47.792;12.076;2023-02-23T16:25:35;6.27;;;5.27;;
15228;SDS011;7717;47.792;12.076;2023-02-23T16:28:07;8.53;;;6.43;;
15228;SDS011;7717;47.792;12.076;2023-02-23T16:30:43;7.37;;;5.20;;
15228;SDS011;7717;47.792;12.076;2023-02-23T16:33:57;7.23;;;5.20;;
15228;SDS011;7717;47.792;12.076;2023-02-23T16:38:38;7.70;;;5.43;;
15228;SDS011;7717;47.792;12.076;2023-02-23T16:41:19;12.20;;;6.03;;
15228;SDS011;7717;47.792;12.076;2023-02-23T16:43:46;9.20;;;5.47;;
15228;SDS011;7717;47.792;12.076;2023-02-23T16:46:14;7.37;;;5.43;;
15228;SDS011;7717;47.792;12.076;2023-02-23T16:48:40;8.03;;;5.00;;
15228;SDS011;7717;47.792;12.076;2023-02-23T16:51:12;6.83;;;4.97;;
15228;SDS011;7717;47.792;12.076;2023-02-23T16:53:45;7.87;;;5.20;;
15228;SDS011;7717;47.792;12.076;2023-02-23T16:56:11;6.23;;;4.87;;
15228;SDS011;7717;47.792;12.076;2023-02-23T16:58:46;11.03;;;5.97;;
15228;SDS011;7717;47.792;12.076;2023-02-23T17:01:14;9.70;;;5.47;;
15228;SDS011;7717;47.792;12.076;2023-02-23T17:03:41;7.40;;;5.30;;
15228;SDS011;7717;47.792;12.076;2023-02-23T17:06:08;8.63;;;5.30;;
15228;SDS011;7717;47.792;12.076;2023-02-23T17:08:35;7.60;;;5.30;;
15228;SDS011;7717;47.792;12.076;2023-02-23T17:11:01;7.07;;;5.70;;
15228;SDS011;7717;47.792;12.076;2023-02-23T17:13:27;7.90;;;6.00;;
15228;SDS011;7717;47.792;12.076;2023-02-23T17:15:56;10.87;;;6.10;;